Duncanville, TX (75116)

7:56 AM CDT on September 03, 2015 (GMT -0500)
Irwin Keasler Red Bird North | | Change Station
CLOSE
Current Station
Personal Weather Station
Location: Duncanville, TX
Elevation: 732 ft
Nearby Weather Stations

Elev 732 ft 32.67 °N, 96.92 °W | Updated 17 seconds ago

Clear
Clear
73.2 °F
Feels Like 73 °F
N
0.0
Wind Variable Wind from South
Gusts 0.0 mph

Today
High -- | Low -- °F
--% Chance of Precip.
Yesterday
High -- | Low -- °F
Precip. -- in
7:03 AM 7:49 PM
Waning Gibbous, 70% visible
Pressure 29.96 in
Visibility 10.0 miles
Clouds Clear
Heat Index 73 °F
Dew Point 68 °F
Humidity 83%
Rainfall 0.00 in
Snow Depth Not available.
UV 0 out of 12
Pollen 9.80 out of 12
Air Quality Not available.
Flu Activity Not available.
METAR KRBD 031253Z 15006KT 10SM CLR 23/20 A2998 RMK AO2 SLP144 T02330200
Pressure 29.96 in
Visibility 10.0 miles
Clouds Clear
Heat Index 73 °F
Dew Point 68 °F
Humidity 83%
Rainfall 0.00 in
Snow Depth Not available.
UV 0 out of 12
Pollen 9.80 out of 12
Air Quality Not available.
Flu Activity Not available.
METAR KRBD 031253Z 15006KT 10SM CLR 23/20 A2998 RMK AO2 SLP144 T02330200

10-Day Weather Forecast

×

Almanac

Astronomy

Sep. 03, 2015 Rise Set
Actual Time
Civil Twilight
Nautical Twilight
Astronomical Twilight
Moon
Length of Visible Light
Length of Day
Tomorrow will be .
, % of the Moon is Illuminated

Today's Extremes

State Highs State Lows

Community

WunderPhotos

Upload Photos

1,851,946 photos uploaded!

WunderBlogs® & News

Nearby

Air Quality

  Air Quality AQ Index Pollutant
Not available.

Snow Depth

Station Depth Elevation

Earthquake Activity

City Distance Mag. Time & Date
Minimum magnitude displayed is 2.5.

Coastal Water Temperatures

Place Temperature

Stations

Nearby Weather Stations

Station Location Temp. Windchill Dew Point Humidity Wind Precip. Elev Updated Type